Time;durP1;ratioP1;P1;durP2;ratioP2;P2;SDS_P1;SDS_P2;PMS_P1;PMS_P2;Temp;Humidity;BMP_temperature;BMP_pressure;BME280_temperature;BME280_humidity;BME280_pressure;Samples;Min_cycle;Max_cycle;Signal;HPM_P1;HPM_P2
2023/02/13 00:02:23;;;;;;;35.47;22.37;;;10.20;99.90;;;;;;5003748;28;20658;-69
2023/02/13 00:04:49;;;;;;;32.53;22.10;;;10.10;99.90;;;;;;5001896;28;20636;-71
2023/02/13 00:07:14;;;;;;;39.17;24.60;;;10.10;99.90;;;;;;5000128;28;20188;-70
2023/02/13 00:09:40;;;;;;;32.73;21.80;;;10.10;99.90;;;;;;4998407;28;20172;-70
2023/02/13 00:12:06;;;;;;;33.23;19.90;;;10.10;99.90;;;;;;4996652;28;20203;-70
2023/02/13 00:14:37;;;;;;;33.87;22.60;;;10.20;99.90;;;;;;4994990;28;20189;-70
2023/02/13 00:17:03;;;;;;;30.40;20.37;;;10.20;99.90;;;;;;5008989;28;20430;-70
2023/02/13 00:19:29;;;;;;;27.53;18.90;;;10.10;99.90;;;;;;5010908;28;20458;-70
2023/02/13 00:21:54;;;;;;;33.63;22.17;;;10.30;99.90;;;;;;5008775;28;20930;-71
2023/02/13 00:24:20;;;;;;;34.57;21.93;;;10.30;99.90;;;;;;5005547;28;20890;-71
2023/02/13 00:26:46;;;;;;;41.40;20.30;;;10.30;99.90;;;;;;5000685;28;20233;-70
2023/02/13 00:29:11;;;;;;;28.87;19.77;;;10.20;99.90;;;;;;5002203;28;20185;-74
2023/02/13 00:31:37;;;;;;;31.83;21.20;;;10.20;99.90;;;;;;5010259;28;20228;-71
2023/02/13 00:34:03;;;;;;;32.20;20.83;;;10.10;99.90;;;;;;5005850;28;20184;-72
2023/02/13 00:36:28;;;;;;;30.80;20.67;;;10.20;99.90;;;;;;5007405;28;20188;-72
2023/02/13 00:38:54;;;;;;;33.00;20.17;;;10.20;99.90;;;;;;4996373;28;20181;-71
2023/02/13 00:41:20;;;;;;;30.60;20.90;;;10.20;99.90;;;;;;4994490;28;20221;-71
2023/02/13 00:43:47;;;;;;;31.23;20.63;;;10.10;99.90;;;;;;4993498;28;20209;-72
2023/02/13 00:46:13;;;;;;;32.20;21.60;;;10.10;99.90;;;;;;4994877;28;20503;-71
2023/02/13 00:48:39;;;;;;;37.93;22.67;;;10.10;99.90;;;;;;5002594;28;20489;-71
2023/02/13 00:51:05;;;;;;;31.67;18.70;;;10.10;99.90;;;;;;5007273;28;20428;-72
2023/02/13 00:53:31;;;;;;;26.07;18.57;;;10.20;99.90;;;;;;4999956;28;21177;-72
2023/02/13 00:55:57;;;;;;;34.07;21.90;;;10.30;99.90;;;;;;5001540;28;20435;-72
2023/02/13 00:58:23;;;;;;;31.70;20.70;;;10.20;99.90;;;;;;5003095;28;20439;-72
2023/02/13 01:00:50;;;;;;;30.60;19.63;;;10.20;99.90;;;;;;5005008;28;20695;-71
2023/02/13 01:03:16;;;;;;;33.33;20.70;;;10.10;99.90;;;;;;5006825;28;20439;-71
2023/02/13 01:05:43;;;;;;;33.43;21.07;;;10.10;99.90;;;;;;5007905;28;20446;-71
2023/02/13 01:08:09;;;;;;;29.53;19.30;;;10.10;99.90;;;;;;5010114;28;20187;-71
2023/02/13 01:10:37;;;;;;;27.90;18.07;;;10.10;99.90;;;;;;5011597;28;20548;-73
2023/02/13 01:13:03;;;;;;;31.10;17.60;;;10.10;99.90;;;;;;4998569;28;20887;-72
2023/02/13 01:15:28;;;;;;;25.97;17.73;;;10.00;99.90;;;;;;4995894;28;20475;-73
2023/02/13 01:17:56;;;;;;;25.37;16.53;;;10.00;99.90;;;;;;4997134;28;20232;-71
2023/02/13 01:20:22;;;;;;;26.60;17.07;;;10.00;99.90;;;;;;5004487;28;20220;-72
2023/02/13 01:22:48;;;;;;;27.70;16.50;;;10.00;99.90;;;;;;5003578;28;20931;-72
2023/02/13 01:25:14;;;;;;;22.93;15.30;;;10.00;99.90;;;;;;5001847;28;20450;-72
2023/02/13 01:27:39;;;;;;;17.57;13.73;;;10.00;99.90;;;;;;5000147;28;20671;-72
2023/02/13 01:30:12;;;;;;;21.10;14.33;;;10.00;99.90;;;;;;4998344;28;20278;-72
2023/02/13 01:32:39;;;;;;;22.03;14.67;;;10.00;99.90;;;;;;5007527;28;20235;-72
2023/02/13 01:35:05;;;;;;;24.97;14.00;;;10.00;99.90;;;;;;4994836;28;20436;-71
2023/02/13 01:37:31;;;;;;;21.40;14.37;;;10.00;99.90;;;;;;4992929;28;21123;-72
2023/02/13 01:39:57;;;;;;;20.97;14.43;;;10.00;99.90;;;;;;4994311;28;20467;-72
2023/02/13 01:42:28;;;;;;;20.93;13.60;;;10.00;99.90;;;;;;4995099;28;20227;-72
2023/02/13 01:44:59;;;;;;;16.80;12.50;;;10.00;99.90;;;;;;4996898;28;20195;-72
2023/02/13 01:47:40;;;;;;;20.17;13.27;;;10.00;99.90;;;;;;4998828;28;20438;-71
2023/02/13 01:50:23;;;;;;;28.40;13.97;;;10.00;99.90;;;;;;5000535;28;20447;-71
2023/02/13 01:53:20;;;;;;;15.97;12.03;;;10.00;99.90;;;;;;5001473;28;20427;-72
2023/02/13 01:55:59;;;;;;;18.67;12.00;;;10.00;99.90;;;;;;4994690;28;20435;-72
2023/02/13 01:58:29;;;;;;;19.13;13.97;;;10.00;99.90;;;;;;5000960;28;20431;-72
2023/02/13 02:00:57;;;;;;;19.00;11.70;;;10.00;99.90;;;;;;5008263;28;20475;-72
2023/02/13 02:03:28;;;;;;;20.47;10.20;;;10.00;99.90;;;;;;5010034;28;20423;-72
2023/02/13 02:05:56;;;;;;;13.00;10.17;;;10.00;99.90;;;;;;5011233;28;20442;-72
2023/02/13 02:08:23;;;;;;;20.53;11.17;;;10.00;99.90;;;;;;5009738;28;20435;-72
2023/02/13 02:10:48;;;;;;;15.53;9.57;;;10.00;99.90;;;;;;5007867;28;20424;-72
2023/02/13 02:13:17;;;;;;;16.13;11.20;;;10.00;99.90;;;;;;4997309;28;20606;-72
2023/02/13 02:15:44;;;;;;;12.80;10.20;;;10.10;99.90;;;;;;5000662;28;20221;-71
2023/02/13 02:18:15;;;;;;;18.80;11.10;;;10.00;99.90;;;;;;5004477;28;20432;-73
2023/02/13 02:21:08;;;;;;;15.63;11.20;;;10.00;99.90;;;;;;5006390;28;20467;-72
2023/02/13 02:23:53;;;;;;;16.70;11.50;;;10.00;99.90;;;;;;5002107;28;20436;-73
2023/02/13 02:26:39;;;;;;;18.07;11.47;;;10.00;99.90;;;;;;5000363;28;20439;-73
2023/02/13 02:29:35;;;;;;;18.50;12.57;;;10.00;99.90;;;;;;5011087;28;20428;-73
2023/02/13 02:32:19;;;;;;;16.50;10.70;;;10.00;99.90;;;;;;5013951;28;20475;-72
2023/02/13 02:35:06;;;;;;;17.73;10.40;;;10.00;99.90;;;;;;4996585;28;20428;-72
2023/02/13 02:37:38;;;;;;;15.20;8.37;;;9.90;99.90;;;;;;4998422;28;20787;-71
2023/02/13 02:40:24;;;;;;;11.20;7.80;;;9.90;99.90;;;;;;5005477;28;20485;-71
2023/02/13 02:42:59;;;;;;;14.03;8.23;;;10.00;99.90;;;;;;5002160;28;20801;-71
2023/02/13 02:45:29;;;;;;;15.57;9.30;;;10.00;99.90;;;;;;5003905;28;20419;-71
2023/02/13 02:51:34;;;;;;;13.40;9.70;;;10.00;99.90;;;;;;5008163;28;21010;-71
2023/02/13 02:53:59;;;;;;;12.17;8.90;;;10.00;99.90;;;;;;5009902;28;20941;-71
2023/02/13 02:56:39;;;;;;;13.50;9.20;;;9.90;99.90;;;;;;5011720;28;20419;-71
2023/02/13 03:07:31;;;;;;;10.30;6.90;;;9.90;99.90;;;;;;5009429;28;20442;-71
2023/02/13 03:22:17;;;;;;;8.33;7.37;;;9.90;99.90;;;;;;5004579;28;20431;-73
2023/02/13 03:24:53;;;;;;;7.70;6.60;;;9.80;99.90;;;;;;4997562;28;20435;-71
2023/02/13 03:30:50;;;;;;;9.40;7.00;;;9.70;99.90;;;;;;5010906;28;20799;-71
2023/02/13 03:33:41;;;;;;;7.67;5.70;;;9.70;99.90;;;;;;4996799;28;20483;-75
2023/02/13 03:39:16;;;;;;;7.43;5.17;;;9.70;99.90;;;;;;5005743;28;20430;-74
2023/02/13 05:32:27;;;;;;;10.43;6.60;;;9.40;99.90;;;;;;5126944;23;20590;-72
2023/02/13 05:34:53;;;;;;;12.20;6.60;;;9.40;99.90;;;;;;5010235;28;20525;-73
2023/02/13 05:37:18;;;;;;;12.27;7.03;;;9.40;99.90;;;;;;5011770;28;20181;-71
2023/02/13 05:39:44;;;;;;;11.57;5.87;;;9.40;99.90;;;;;;5008355;28;20192;-71
2023/02/13 05:42:09;;;;;;;12.37;7.37;;;9.40;99.90;;;;;;5006367;28;20235;-71
2023/02/13 05:44:35;;;;;;;10.20;6.87;;;9.40;99.90;;;;;;5011808;28;20187;-74
2023/02/13 05:47:00;;;;;;;10.20;6.03;;;9.40;99.90;;;;;;5011889;28;20188;-71
2023/02/13 05:49:26;;;;;;;12.00;6.97;;;9.40;99.90;;;;;;5011420;28;20183;-71
2023/02/13 05:51:52;;;;;;;13.20;6.50;;;9.30;99.90;;;;;;5014998;28;20226;-71
2023/02/13 05:54:18;;;;;;;12.93;7.10;;;9.40;99.90;;;;;;5015621;28;20280;-71
2023/02/13 05:56:43;;;;;;;11.47;7.53;;;9.30;99.90;;;;;;5015659;28;20227;-71
2023/02/13 05:59:09;;;;;;;8.00;5.73;;;9.40;99.90;;;;;;5015567;28;20564;-71
2023/02/13 06:01:35;;;;;;;9.40;6.37;;;9.40;99.90;;;;;;5015493;28;20250;-72
2023/02/13 06:04:00;;;;;;;8.50;5.93;;;9.40;99.90;;;;;;4997527;28;20222;-73
2023/02/13 06:06:26;;;;;;;6.53;5.83;;;9.40;99.90;;;;;;5015521;28;20507;-73
2023/02/13 06:08:51;;;;;;;9.67;6.70;;;9.40;99.90;;;;;;5015230;28;20591;-72
2023/02/13 06:11:17;;;;;;;9.20;6.10;;;9.40;99.90;;;;;;5015473;28;20192;-72
2023/02/13 06:13:43;;;;;;;11.17;6.27;;;9.40;99.90;;;;;;5015327;28;20195;-71
2023/02/13 06:16:10;;;;;;;8.13;5.80;;;9.40;99.90;;;;;;5015161;28;20176;-72
2023/02/13 06:18:36;;;;;;;10.00;7.23;;;9.40;99.90;;;;;;5015364;28;20527;-73
2023/02/13 06:21:02;;;;;;;9.07;6.20;;;9.30;99.90;;;;;;5015079;28;20477;-77
2023/02/13 06:23:28;;;;;;;12.63;6.30;;;9.30;99.90;;;;;;5016013;28;20423;-74
2023/02/13 06:25:54;;;;;;;11.20;6.90;;;9.30;99.90;;;;;;5014831;28;20439;-72
2023/02/13 06:28:20;;;;;;;13.27;7.50;;;9.30;99.90;;;;;;5015321;28;20784;-72
2023/02/13 06:30:46;;;;;;;12.43;7.90;;;9.30;99.90;;;;;;5014336;28;20582;-72
2023/02/13 06:33:11;;;;;;;13.03;7.00;;;9.30;99.90;;;;;;5015847;28;20199;-72
2023/02/13 06:35:37;;;;;;;9.80;6.40;;;9.20;99.90;;;;;;5015401;28;20934;-72
2023/02/13 06:38:02;;;;;;;11.03;6.67;;;9.10;99.90;;;;;;5015485;28;20191;-72
2023/02/13 06:40:28;;;;;;;7.50;6.23;;;9.10;99.90;;;;;;5015615;28;20212;-72
2023/02/13 06:42:53;;;;;;;11.33;6.97;;;9.00;99.90;;;;;;5015876;28;20206;-72
2023/02/13 06:45:19;;;;;;;10.30;6.90;;;9.00;99.90;;;;;;5015578;28;20191;-72
2023/02/13 06:47:46;;;;;;;10.10;6.67;;;8.90;99.90;;;;;;5014803;28;20220;-72
2023/02/13 06:50:13;;;;;;;9.93;6.30;;;8.90;99.90;;;;;;5014510;28;20192;-77
2023/02/13 06:52:43;;;;;;;8.90;6.57;;;8.80;99.90;;;;;;5014608;28;20435;-67
2023/02/13 06:55:09;;;;;;;10.70;6.83;;;8.90;99.90;;;;;;5013172;28;20442;-67
2023/02/13 06:57:35;;;;;;;7.87;6.27;;;8.80;99.90;;;;;;5014429;28;20918;-67
2023/02/13 07:00:04;;;;;;;8.17;5.30;;;8.70;99.90;;;;;;5014362;28;20208;-67
2023/02/13 07:02:33;;;;;;;9.70;6.33;;;8.70;99.90;;;;;;5010649;28;20192;-66
2023/02/13 07:04:59;;;;;;;9.23;6.33;;;8.60;99.90;;;;;;5014480;28;20435;-67
2023/02/13 07:07:24;;;;;;;12.13;6.40;;;8.50;99.90;;;;;;5014539;28;20797;-67
2023/02/13 07:09:50;;;;;;;9.97;6.17;;;8.40;99.90;;;;;;5014466;28;20638;-67
2023/02/13 07:12:15;;;;;;;11.53;7.57;;;8.50;99.90;;;;;;5014337;28;20220;-66
2023/02/13 07:14:41;;;;;;;9.23;6.37;;;8.40;99.90;;;;;;5014509;28;20608;-67
2023/02/13 07:17:06;;;;;;;10.90;6.23;;;8.40;99.90;;;;;;5013991;28;20663;-67
2023/02/13 07:19:32;;;;;;;9.70;6.73;;;8.30;99.90;;;;;;5014182;28;20648;-68
2023/02/13 07:21:58;;;;;;;10.20;7.03;;;8.30;99.90;;;;;;5014019;28;20554;-68
2023/02/13 07:24:23;;;;;;;11.23;6.60;;;8.30;99.90;;;;;;5014087;28;20176;-67
2023/02/13 07:26:49;;;;;;;8.90;6.20;;;8.30;99.90;;;;;;5014069;28;20195;-68
2023/02/13 07:29:14;;;;;;;8.20;6.40;;;8.30;99.90;;;;;;5014026;28;20212;-68
2023/02/13 07:31:40;;;;;;;9.93;7.00;;;8.30;99.90;;;;;;5013545;28;20319;-68
2023/02/13 07:34:06;;;;;;;12.87;7.63;;;8.20;99.90;;;;;;5014039;28;20695;-68
2023/02/13 07:36:32;;;;;;;11.20;6.80;;;8.20;99.90;;;;;;5014012;28;20192;-68
2023/02/13 07:38:57;;;;;;;14.03;7.20;;;8.10;99.90;;;;;;5013759;28;20519;-68
2023/02/13 07:41:25;;;;;;;12.13;8.37;;;8.10;99.90;;;;;;5013582;28;20216;-68
2023/02/13 07:43:51;;;;;;;12.77;8.00;;;8.20;99.90;;;;;;5013894;28;20299;-68
2023/02/13 07:46:17;;;;;;;8.93;7.50;;;8.30;99.90;;;;;;5013768;28;21033;-69
2023/02/13 07:48:42;;;;;;;17.80;7.40;;;8.60;99.90;;;;;;5013385;28;20477;-67
2023/02/13 07:51:08;;;;;;;10.20;6.67;;;8.80;99.90;;;;;;5013403;28;20283;-68
2023/02/13 07:53:34;;;;;;;14.80;7.60;;;9.10;99.90;;;;;;5013436;28;20639;-68
2023/02/13 07:56:07;;;;;;;10.10;6.90;;;9.40;99.90;;;;;;5013739;28;20184;-68
2023/02/13 07:58:33;;;;;;;10.30;6.63;;;9.70;99.90;;;;;;5013413;28;20854;-68
2023/02/13 08:01:04;;;;;;;11.93;6.90;;;10.00;99.90;;;;;;5013339;28;20598;-68
2023/02/13 08:03:29;;;;;;;9.90;7.57;;;10.30;99.90;;;;;;5013436;28;20189;-68
2023/02/13 08:05:55;;;;;;;8.77;6.70;;;10.50;99.90;;;;;;5013096;28;20434;-68
2023/02/13 08:08:20;;;;;;;11.20;6.90;;;10.80;99.90;;;;;;5013308;28;20191;-67
2023/02/13 08:13:31;;;;;;;10.97;7.20;;;11.20;99.90;;;;;;5012661;28;20230;-68
2023/02/13 08:15:56;;;;;;;13.10;7.20;;;11.40;99.90;;;;;;5013157;28;20465;-68
2023/02/13 08:18:22;;;;;;;11.30;6.83;;;11.60;99.90;;;;;;5013130;28;20466;-68
2023/02/13 08:20:48;;;;;;;13.90;7.70;;;11.70;99.90;;;;;;5013363;28;20234;-67
2023/02/13 08:23:13;;;;;;;14.33;8.03;;;11.80;99.90;;;;;;5013253;28;20609;-68
2023/02/13 08:25:39;;;;;;;10.90;7.57;;;12.00;99.90;;;;;;5012973;28;20467;-68
2023/02/13 08:28:05;;;;;;;9.40;7.50;;;12.00;99.90;;;;;;5013099;28;20207;-68
2023/02/13 08:30:30;;;;;;;11.07;7.20;;;12.10;99.90;;;;;;5006059;28;20169;-68
2023/02/13 08:32:56;;;;;;;9.53;6.30;;;12.30;99.90;;;;;;5004477;28;20184;-68
2023/02/13 08:35:25;;;;;;;11.50;7.10;;;12.30;99.90;;;;;;5011739;28;20174;-68
2023/02/13 08:37:51;;;;;;;9.00;5.67;;;12.30;99.90;;;;;;4989112;28;20553;-68
2023/02/13 08:40:17;;;;;;;10.50;6.93;;;12.40;99.90;;;;;;5011732;28;20479;-68
2023/02/13 08:42:42;;;;;;;11.10;7.80;;;12.50;99.90;;;;;;5010865;28;20423;-68
2023/02/13 08:45:10;;;;;;;9.93;6.80;;;12.60;99.90;;;;;;4996107;28;20243;-68
2023/02/13 08:47:36;;;;;;;10.50;7.30;;;12.60;99.90;;;;;;5013488;28;20196;-68
2023/02/13 08:50:02;;;;;;;10.60;7.30;;;12.70;99.90;;;;;;5014590;28;20439;-69
2023/02/13 08:52:28;;;;;;;10.33;6.33;;;12.70;99.90;;;;;;5013378;28;20923;-69
2023/02/13 08:54:53;;;;;;;10.50;7.50;;;12.80;99.90;;;;;;5013399;28;20423;-70
2023/02/13 08:57:19;;;;;;;10.00;6.73;;;12.80;99.90;;;;;;5013285;28;20187;-69
2023/02/13 08:59:45;;;;;;;10.80;7.30;;;12.90;99.90;;;;;;5012204;28;20201;-69
2023/02/13 09:02:11;;;;;;;14.77;8.37;;;12.90;99.90;;;;;;5013236;28;20184;-69
2023/02/13 09:04:36;;;;;;;11.60;6.93;;;12.90;99.90;;;;;;5013175;28;20655;-70
2023/02/13 09:07:02;;;;;;;10.10;5.93;;;12.80;99.90;;;;;;5013129;28;20530;-70
2023/02/13 09:09:27;;;;;;;12.20;6.83;;;12.80;99.90;;;;;;5013312;28;20184;-70
2023/02/13 09:11:56;;;;;;;10.20;6.60;;;12.80;99.90;;;;;;5010960;28;20283;-69
2023/02/13 09:14:25;;;;;;;13.27;7.90;;;12.70;99.90;;;;;;5013182;28;20184;-69
2023/02/13 09:16:50;;;;;;;9.10;6.60;;;12.60;99.90;;;;;;5013327;28;20455;-69
2023/02/13 09:19:16;;;;;;;11.33;5.97;;;12.60;99.90;;;;;;5012988;28;20866;-71
2023/02/13 09:21:41;;;;;;;7.43;6.27;;;12.60;99.90;;;;;;5011646;28;20216;-71
2023/02/13 09:24:08;;;;;;;8.60;6.67;;;12.50;99.90;;;;;;5008843;28;20196;-71
2023/02/13 09:26:34;;;;;;;10.00;6.73;;;12.50;99.90;;;;;;5011026;28;20639;-69
2023/02/13 09:28:59;;;;;;;10.70;7.67;;;12.50;99.90;;;;;;5011371;28;20421;-69
2023/02/13 09:31:25;;;;;;;10.20;7.97;;;12.60;99.90;;;;;;5011360;28;20224;-69
2023/02/13 09:33:50;;;;;;;11.17;7.37;;;12.60;99.90;;;;;;5012003;28;20188;-68
2023/02/13 09:36:18;;;;;;;11.87;7.87;;;12.50;99.90;;;;;;5011654;28;20192;-69
2023/02/13 09:38:45;;;;;;;11.60;7.30;;;12.60;99.90;;;;;;5012709;28;20196;-69
2023/02/13 09:41:26;;;;;;;11.57;7.57;;;12.60;99.90;;;;;;5012429;28;20487;-69
2023/02/13 09:43:58;;;;;;;9.70;6.87;;;12.70;99.90;;;;;;5009374;28;20481;-68
2023/02/13 09:46:32;;;;;;;8.23;6.70;;;12.60;99.90;;;;;;5010894;28;20443;-68
2023/02/13 09:49:01;;;;;;;9.67;7.53;;;12.60;99.90;;;;;;5010640;28;20422;-68
2023/02/13 09:51:27;;;;;;;11.70;7.13;;;12.60;99.90;;;;;;5011106;28;21043;-68
2023/02/13 09:54:01;;;;;;;12.20;8.97;;;12.60;99.90;;;;;;5010908;28;20466;-68
2023/02/13 09:56:59;;;;;;;10.57;7.10;;;12.70;99.90;;;;;;5011695;28;20962;-68
2023/02/13 09:59:56;;;;;;;10.00;7.53;;;12.60;99.90;;;;;;5012295;28;20427;-68
2023/02/13 10:02:45;;;;;;;11.30;7.03;;;12.70;99.90;;;;;;5011443;28;20443;-68
2023/02/13 10:05:38;;;;;;;11.43;8.73;;;12.80;99.90;;;;;;5012258;28;20498;-68
2023/02/13 10:08:20;;;;;;;11.00;7.67;;;12.80;99.90;;;;;;5012743;28;20459;-67
2023/02/13 10:11:11;;;;;;;11.57;7.77;;;12.60;99.90;;;;;;5011609;28;20435;-68
2023/02/13 10:14:21;;;;;;;11.33;7.90;;;12.70;99.90;;;;;;5012825;28;20440;-68
2023/02/13 10:16:54;;;;;;;10.30;7.67;;;12.70;99.90;;;;;;4992344;28;20435;-69
2023/02/13 10:19:33;;;;;;;13.07;8.40;;;12.80;99.90;;;;;;5012571;28;20427;-68
2023/02/13 10:22:15;;;;;;;11.13;8.00;;;12.70;99.90;;;;;;4994656;28;20961;-68
2023/02/13 10:25:11;;;;;;;10.37;7.73;;;12.80;99.90;;;;;;5012421;28;20434;-68
2023/02/13 10:27:42;;;;;;;11.83;7.70;;;12.80;99.90;;;;;;5011466;28;20443;-68
2023/02/13 10:30:20;;;;;;;13.47;8.30;;;12.90;99.90;;;;;;5010046;28;20438;-69
2023/02/13 10:33:17;;;;;;;11.30;8.00;;;12.80;99.90;;;;;;5003612;28;20434;-69
2023/02/13 10:35:48;;;;;;;10.80;7.33;;;12.70;99.90;;;;;;5010777;28;20434;-68
2023/02/13 10:38:16;;;;;;;8.67;6.70;;;12.80;99.90;;;;;;5015886;28;20453;-69
2023/02/13 10:41:20;;;;;;;9.60;6.73;;;12.60;99.90;;;;;;5015791;28;20487;-68
2023/02/13 10:44:18;;;;;;;15.03;8.37;;;12.70;99.90;;;;;;5015663;28;20454;-68
2023/02/13 10:46:58;;;;;;;9.80;7.37;;;12.80;99.90;;;;;;4965573;28;20503;-68
2023/02/13 10:49:31;;;;;;;10.13;7.57;;;12.90;99.90;;;;;;5015750;28;20485;-68
2023/02/13 10:52:17;;;;;;;9.10;6.87;;;12.90;99.90;;;;;;5012796;28;20435;-68
2023/02/13 10:54:53;;;;;;;9.53;7.03;;;13.00;99.90;;;;;;5014731;28;20477;-67
2023/02/13 10:57:27;;;;;;;9.70;6.47;;;13.10;99.90;;;;;;5013891;28;21225;-68
2023/02/13 11:00:05;;;;;;;11.50;6.83;;;13.10;99.90;;;;;;5015528;28;20800;-68
2023/02/13 11:02:31;;;;;;;9.67;7.90;;;13.20;99.90;;;;;;5015674;28;20427;-68
2023/02/13 11:05:12;;;;;;;8.33;7.43;;;13.20;99.90;;;;;;5015519;28;20846;-68
2023/02/13 11:07:38;;;;;;;12.67;8.00;;;13.30;99.90;;;;;;5013386;28;20538;-68
2023/02/13 11:10:15;;;;;;;9.97;7.47;;;13.30;99.90;;;;;;5015133;28;20933;-68
2023/02/13 11:12:41;;;;;;;9.10;6.33;;;13.40;99.90;;;;;;5015282;28;20587;-68
2023/02/13 11:15:29;;;;;;;10.07;6.83;;;13.40;99.90;;;;;;4997633;28;20463;-69
2023/02/13 11:18:19;;;;;;;13.43;8.57;;;13.50;99.90;;;;;;5014411;28;20651;-68
2023/02/13 11:20:48;;;;;;;11.83;7.73;;;13.50;99.90;;;;;;5010937;28;20848;-68
2023/02/13 11:23:16;;;;;;;9.60;8.10;;;13.50;99.90;;;;;;5013421;28;20589;-68
2023/02/13 11:25:55;;;;;;;12.03;7.93;;;13.50;99.90;;;;;;5014884;28;20530;-67
2023/02/13 11:28:21;;;;;;;8.43;6.90;;;13.60;99.90;;;;;;5013849;28;20431;-68
2023/02/13 11:30:47;;;;;;;10.57;7.00;;;13.70;99.90;;;;;;5014596;28;20475;-68
2023/02/13 11:33:16;;;;;;;8.63;7.27;;;13.70;99.90;;;;;;5014881;28;20437;-68
2023/02/13 11:35:42;;;;;;;9.37;7.40;;;13.70;99.90;;;;;;5014737;28;20427;-70
2023/02/13 11:38:17;;;;;;;10.30;7.83;;;13.80;99.90;;;;;;5014536;28;20519;-70
2023/02/13 11:40:49;;;;;;;10.27;7.83;;;13.90;99.90;;;;;;5014588;28;20462;-70
2023/02/13 11:43:22;;;;;;;11.30;7.53;;;13.90;99.90;;;;;;5014495;28;20466;-71
2023/02/13 11:46:06;;;;;;;11.97;7.80;;;14.00;99.90;;;;;;5012374;28;20490;-70
2023/02/13 11:48:32;;;;;;;12.80;7.93;;;14.10;99.90;;;;;;5013576;28;20431;-71
2023/02/13 11:50:58;;;;;;;12.73;7.23;;;14.10;99.90;;;;;;5014577;28;20429;-70
2023/02/13 11:53:28;;;;;;;9.37;7.07;;;14.10;99.90;;;;;;5014568;28;20433;-69
2023/02/13 11:56:13;;;;;;;10.93;6.87;;;14.30;99.90;;;;;;5012941;28;20651;-69
2023/02/13 11:58:40;;;;;;;12.83;6.60;;;14.40;99.90;;;;;;5013442;28;20439;-69
2023/02/13 12:01:08;;;;;;;7.40;6.27;;;14.50;99.90;;;;;;5014146;28;21024;-70
2023/02/13 12:03:37;;;;;;;7.60;6.60;;;14.70;99.90;;;;;;5014094;28;21110;-69
2023/02/13 12:06:13;;;;;;;8.60;6.53;;;14.90;99.90;;;;;;5013960;28;20953;-69
2023/02/13 12:08:41;;;;;;;8.80;5.83;;;15.20;99.90;;;;;;5014258;28;20525;-69
2023/02/13 12:11:25;;;;;;;6.63;5.30;;;15.30;99.90;;;;;;5013974;28;20932;-69
2023/02/13 12:13:51;;;;;;;7.40;5.50;;;15.40;99.90;;;;;;5014052;28;20439;-69
2023/02/13 12:16:40;;;;;;;9.63;6.30;;;15.50;99.90;;;;;;5014029;28;20759;-69
2023/02/13 12:19:13;;;;;;;10.50;6.17;;;15.70;99.90;;;;;;5011629;28;20450;-70
2023/02/13 12:21:58;;;;;;;10.70;6.50;;;15.80;99.90;;;;;;5013624;28;20471;-69
2023/02/13 12:24:46;;;;;;;7.20;6.20;;;15.80;99.90;;;;;;5013574;28;20513;-69
2023/02/13 12:27:34;;;;;;;7.23;5.53;;;15.80;99.90;;;;;;5012648;28;20442;-69
2023/02/13 12:30:25;;;;;;;7.43;5.60;;;15.80;99.90;;;;;;5013972;28;20446;-69
2023/02/13 12:33:15;;;;;;;7.80;5.40;;;15.80;99.90;;;;;;5013760;28;20497;-69
2023/02/13 12:36:04;;;;;;;10.80;6.00;;;15.80;99.90;;;;;;5013765;28;20474;-69
2023/02/13 12:38:59;;;;;;;8.40;6.03;;;15.70;99.90;;;;;;5013487;28;20428;-70
2023/02/13 12:41:29;;;;;;;10.63;5.00;;;15.50;99.90;;;;;;5013526;28;20564;-69
2023/02/13 12:44:22;;;;;;;8.53;6.73;;;15.50;99.90;;;;;;5013391;28;20435;-70
2023/02/13 12:46:54;;;;;;;7.13;5.73;;;15.40;99.90;;;;;;4993756;28;20447;-69
2023/02/13 12:49:27;;;;;;;6.90;5.57;;;15.30;99.90;;;;;;4995754;28;20430;-69
2023/02/13 12:51:59;;;;;;;20.73;8.47;;;15.30;99.90;;;;;;5013411;28;20442;-70
2023/02/13 12:54:38;;;;;;;9.43;6.07;;;15.30;99.90;;;;;;5013365;28;20427;-69
2023/02/13 12:57:33;;;;;;;7.33;5.60;;;15.10;99.90;;;;;;5010991;28;20802;-70
2023/02/13 13:00:18;;;;;;;9.67;5.83;;;15.10;99.90;;;;;;5010130;28;20566;-70
2023/02/13 13:03:05;;;;;;;7.63;5.43;;;15.20;99.90;;;;;;5013239;28;20426;-70
2023/02/13 13:05:52;;;;;;;6.03;5.30;;;15.30;99.90;;;;;;5012972;28;20485;-72
2023/02/13 13:08:42;;;;;;;8.50;5.97;;;15.30;99.90;;;;;;5012369;28;20517;-72
2023/02/13 13:11:44;;;;;;;8.13;5.70;;;15.30;99.90;;;;;;5012170;28;20435;-72
2023/02/13 13:14:47;;;;;;;7.97;5.03;;;15.50;99.90;;;;;;5012254;28;20477;-72
2023/02/13 13:17:15;;;;;;;8.63;5.90;;;15.50;99.90;;;;;;5011422;28;20427;-72
2023/02/13 13:20:00;;;;;;;6.80;5.47;;;15.60;99.90;;;;;;5013023;28;20434;-72
2023/02/13 13:22:33;;;;;;;8.73;5.03;;;15.70;99.90;;;;;;5012354;28;20517;-73
2023/02/13 13:25:21;;;;;;;8.20;5.60;;;15.80;99.90;;;;;;5012717;28;20428;-72
2023/02/13 13:27:52;;;;;;;7.37;5.50;;;15.80;99.90;;;;;;5012634;28;20446;-72
2023/02/13 13:30:27;;;;;;;9.73;5.77;;;15.80;99.90;;;;;;5012942;28;20511;-72
2023/02/13 13:33:10;;;;;;;8.00;5.40;;;15.80;99.90;;;;;;5013170;28;20442;-72
2023/02/13 13:35:39;;;;;;;8.63;6.10;;;15.90;99.90;;;;;;5012726;28;20427;-72
2023/02/13 13:38:16;;;;;;;7.20;5.83;;;15.90;99.90;;;;;;5010798;28;20483;-73
2023/02/13 13:41:08;;;;;;;7.63;6.40;;;15.90;99.90;;;;;;5013246;28;20466;-73
2023/02/13 13:43:57;;;;;;;8.83;6.57;;;15.80;99.90;;;;;;5012762;28;20441;-72
2023/02/13 13:46:41;;;;;;;6.30;5.23;;;15.80;99.90;;;;;;5012321;28;20530;-72
2023/02/13 13:49:35;;;;;;;14.60;6.70;;;15.80;99.90;;;;;;5012277;28;20415;-72
2023/02/13 13:52:38;;;;;;;8.90;6.30;;;15.70;99.90;;;;;;5012775;28;20441;-73
2023/02/13 13:55:05;;;;;;;6.73;5.20;;;15.60;99.90;;;;;;5009550;28;20496;-73
2023/02/13 13:57:40;;;;;;;9.40;5.30;;;15.60;99.90;;;;;;5012537;28;20936;-72
2023/02/13 14:00:08;;;;;;;8.90;6.30;;;15.50;99.90;;;;;;5012509;28;20470;-72
2023/02/13 14:02:43;;;;;;;8.63;5.70;;;15.50;99.90;;;;;;5012863;28;20480;-72
2023/02/13 14:05:12;;;;;;;6.70;5.97;;;15.40;99.90;;;;;;5012892;28;20438;-72
2023/02/13 14:07:40;;;;;;;7.77;5.70;;;15.30;99.90;;;;;;5010572;28;20422;-72
2023/02/13 14:10:19;;;;;;;7.83;6.83;;;15.30;99.90;;;;;;5012812;28;20530;-72
2023/02/13 14:12:55;;;;;;;7.70;6.40;;;15.30;99.90;;;;;;5014340;28;20712;-72
2023/02/13 14:15:32;;;;;;;9.97;5.60;;;15.20;99.90;;;;;;5015188;28;20457;-72
2023/02/13 14:18:02;;;;;;;7.27;6.17;;;15.20;99.90;;;;;;5014155;28;20435;-71
2023/02/13 14:20:57;;;;;;;8.20;5.23;;;15.10;99.90;;;;;;5016086;28;20966;-72
2023/02/13 14:23:41;;;;;;;6.60;6.00;;;14.90;99.90;;;;;;5013030;28;20438;-72
2023/02/13 14:26:14;;;;;;;6.50;5.80;;;14.80;99.90;;;;;;5016007;28;20964;-72
2023/02/13 14:28:42;;;;;;;9.17;6.00;;;14.80;99.90;;;;;;5015927;28;20481;-72
2023/02/13 14:31:15;;;;;;;6.67;5.30;;;14.70;99.90;;;;;;5015611;28;20471;-72
2023/02/13 14:33:41;;;;;;;10.00;5.70;;;14.70;99.90;;;;;;5015627;28;20458;-72
2023/02/13 14:36:18;;;;;;;6.27;5.00;;;14.60;99.90;;;;;;5015821;28;20466;-71
2023/02/13 14:38:57;;;;;;;8.63;6.30;;;14.40;99.90;;;;;;5015152;28;20650;-72
2023/02/13 14:41:43;;;;;;;7.13;6.10;;;14.50;99.90;;;;;;5014234;28;20509;-72
2023/02/13 14:44:43;;;;;;;9.77;6.50;;;14.40;99.90;;;;;;5014073;28;20804;-70
2023/02/13 14:47:44;;;;;;;6.43;5.37;;;14.20;99.90;;;;;;4997820;28;20668;-70
2023/02/13 14:50:24;;;;;;;14.07;5.80;;;14.20;99.90;;;;;;5013914;28;20439;-71
2023/02/13 14:52:50;;;;;;;8.60;5.93;;;14.20;99.90;;;;;;4996962;28;20438;-71
2023/02/13 14:55:40;;;;;;;7.47;6.43;;;14.20;99.90;;;;;;5014179;28;20489;-71
2023/02/13 14:58:19;;;;;;;9.43;6.07;;;14.30;99.90;;;;;;5012617;28;20443;-71
2023/02/13 15:01:06;;;;;;;10.50;5.50;;;14.10;99.90;;;;;;4990230;28;20533;-70
2023/02/13 15:03:37;;;;;;;8.80;6.70;;;13.90;99.90;;;;;;5014236;28;20431;-71
2023/02/13 15:06:29;;;;;;;7.03;6.37;;;13.90;99.90;;;;;;5014486;28;20431;-72
2023/02/13 15:08:58;;;;;;;8.57;6.10;;;14.00;99.90;;;;;;5011457;28;20420;-70
2023/02/13 15:11:41;;;;;;;9.47;5.60;;;14.00;99.90;;;;;;5014350;28;20506;-74
2023/02/13 15:14:30;;;;;;;13.20;7.13;;;13.90;99.90;;;;;;5011907;28;20430;-72
2023/02/13 15:17:16;;;;;;;8.60;5.80;;;13.90;99.90;;;;;;5010930;28;20466;-71
2023/02/13 15:19:51;;;;;;;8.10;6.93;;;13.80;99.90;;;;;;5013649;28;20438;-71
2023/02/13 15:22:20;;;;;;;6.10;5.00;;;13.70;99.90;;;;;;5010898;28;20449;-71
2023/02/13 15:24:47;;;;;;;10.60;6.67;;;13.70;99.90;;;;;;5014304;28;20792;-71
2023/02/13 15:27:39;;;;;;;10.23;7.00;;;13.60;99.90;;;;;;5013481;28;20514;-71
2023/02/13 15:30:24;;;;;;;9.17;6.47;;;13.40;99.90;;;;;;5013089;28;20922;-71
2023/02/13 15:33:01;;;;;;;8.73;6.13;;;13.30;99.90;;;;;;5013171;28;20431;-71
2023/02/13 15:35:33;;;;;;;10.97;6.67;;;13.30;99.90;;;;;;5012524;28;20431;-71